TJIG/SIG METAR and TAF weather

Enter ICAO airport designator
Station Type Date Time Source
TJIG METAR 2019/06/26 22:45 UTC NOAA

TJIG 262245Z 10010KT 10SM SCT030 SCT080 28/24 A3004


Station Type Date Time Source
TJIG Decoded METAR 2019/06/26 22:45 UTC NOAA

Station name not available
Jun 26, 2019 - 06:45 PM EDT / 2019.06.26 2245 UTC
Wind: from the E (100 degrees) at 12 MPH (10 KT):0
Visibility: 10 mile(s):0
Sky conditions: partly cloudy
Temperature: 82 F (28 C)
Dew Point: 75 F (24 C)
Relative Humidity: 78%
Pressure (altimeter): 30.04 in. Hg (1017 hPa)
ob: TJIG 262245Z 10010KT 10SM SCT030 SCT080 28/24 A3004
cycle: 23

Station Type Date Time Source
TJIG TAF UTC NOAA

Error!

Example: see airport list